Time;durP1;ratioP1;P1;durP2;ratioP2;P2;SDS_P1;SDS_P2;PMS_P1;PMS_P2;Temp;Humidity;BMP_temperature;BMP_pressure;BME280_temperature;BME280_humidity;BME280_pressure;Samples;Min_cycle;Max_cycle;Signal;HPM_P1;HPM_P2
2023/04/03 00:01:08;;;;;;;13.07;10.47;;;4.10;99.90;;;;;;5092986;28;20306;-71
2023/04/03 00:03:34;;;;;;;13.80;11.10;;;4.00;99.90;;;;;;5092761;28;20160;-71
2023/04/03 00:06:00;;;;;;;13.27;10.63;;;4.00;99.90;;;;;;5093103;28;20179;-71
2023/04/03 00:08:26;;;;;;;12.47;9.70;;;4.00;99.90;;;;;;5092963;28;20164;-71
2023/04/03 00:10:52;;;;;;;16.23;10.40;;;4.00;99.90;;;;;;5092909;28;20180;-72
2023/04/03 00:13:18;;;;;;;11.63;9.77;;;4.00;99.90;;;;;;5074843;28;20176;-72
2023/04/03 00:15:44;;;;;;;12.13;9.67;;;4.00;99.90;;;;;;5092880;28;20176;-71
2023/04/03 00:18:10;;;;;;;14.83;9.87;;;4.00;99.90;;;;;;5094867;28;20172;-71
2023/04/03 00:20:36;;;;;;;14.47;9.57;;;4.00;99.90;;;;;;5096758;28;20260;-71
2023/04/03 00:23:02;;;;;;;10.33;9.20;;;4.00;99.90;;;;;;5096617;28;20168;-71
2023/04/03 00:25:28;;;;;;;11.50;9.07;;;4.00;99.90;;;;;;5096631;28;20180;-71
2023/04/03 00:27:54;;;;;;;11.87;9.63;;;3.90;99.90;;;;;;5096729;28;20577;-71
2023/04/03 00:30:21;;;;;;;9.80;8.80;;;3.90;99.90;;;;;;5096450;28;20246;-71
2023/04/03 00:32:51;;;;;;;12.87;9.90;;;3.90;99.90;;;;;;5096492;28;20167;-71
2023/04/03 00:35:18;;;;;;;11.77;9.30;;;3.90;99.90;;;;;;5096366;28;20172;-71
2023/04/03 00:37:44;;;;;;;11.37;8.97;;;3.90;99.90;;;;;;5096481;28;20229;-70
2023/04/03 00:40:11;;;;;;;12.07;9.40;;;3.80;99.90;;;;;;5096316;28;20218;-72
2023/04/03 00:42:38;;;;;;;10.00;8.90;;;3.80;99.90;;;;;;5096086;28;20254;-71
2023/04/03 00:45:04;;;;;;;11.03;9.00;;;3.80;99.90;;;;;;5096322;28;20168;-71
2023/04/03 00:47:30;;;;;;;10.47;9.37;;;3.80;99.90;;;;;;5077757;28;20600;-71
2023/04/03 00:49:57;;;;;;;11.27;9.90;;;3.80;99.90;;;;;;5096115;28;20180;-71
2023/04/03 00:52:29;;;;;;;12.97;9.00;;;3.70;99.90;;;;;;5096139;28;20191;-71
2023/04/03 00:54:59;;;;;;;11.73;8.87;;;3.70;99.90;;;;;;5096378;28;20171;-71
2023/04/03 00:57:26;;;;;;;11.57;8.80;;;3.70;99.90;;;;;;5096019;28;20225;-71
2023/04/03 00:59:57;;;;;;;11.77;8.83;;;3.60;99.90;;;;;;5096130;28;20302;-71
2023/04/03 01:02:23;;;;;;;11.50;9.70;;;3.70;99.90;;;;;;5077748;28;20175;-71
2023/04/03 01:04:49;;;;;;;10.80;8.80;;;3.60;99.90;;;;;;5095933;28;20168;-71
2023/04/03 01:07:22;;;;;;;9.10;8.30;;;3.50;99.90;;;;;;5095799;28;20183;-72
2023/04/03 01:09:50;;;;;;;12.50;9.10;;;3.60;99.90;;;;;;5095642;28;20164;-71
2023/04/03 01:12:20;;;;;;;12.23;8.93;;;3.50;99.90;;;;;;5095672;28;20266;-71
2023/04/03 01:14:51;;;;;;;10.87;8.60;;;3.50;99.90;;;;;;5095358;28;20175;-71
2023/04/03 01:17:31;;;;;;;13.97;10.37;;;3.50;99.90;;;;;;5095808;28;20168;-71
2023/04/03 01:20:30;;;;;;;10.07;8.70;;;3.50;99.90;;;;;;5095247;28;20226;-71
2023/04/03 01:22:55;;;;;;;10.40;8.63;;;3.40;99.90;;;;;;5095460;28;20201;-71
2023/04/03 01:25:22;;;;;;;12.17;8.73;;;3.30;99.90;;;;;;5095573;28;20164;-71
2023/04/03 01:27:47;;;;;;;11.57;8.93;;;3.40;99.90;;;;;;5095207;28;20539;-71
2023/04/03 01:30:16;;;;;;;12.97;9.63;;;3.30;99.90;;;;;;5095031;28;20171;-72
2023/04/03 01:32:42;;;;;;;10.60;8.47;;;3.30;99.90;;;;;;5095718;28;20221;-71
2023/04/03 01:35:09;;;;;;;11.00;9.07;;;3.20;99.90;;;;;;5095468;28;20172;-72
2023/04/03 01:37:35;;;;;;;13.10;8.90;;;3.20;99.90;;;;;;5095550;28;20198;-71
2023/04/03 01:40:00;;;;;;;14.37;9.40;;;3.20;99.90;;;;;;5095174;28;20203;-71
2023/04/03 01:42:26;;;;;;;11.07;9.10;;;3.20;99.90;;;;;;5095120;28;20172;-71
2023/04/03 01:44:51;;;;;;;12.20;9.77;;;3.20;99.90;;;;;;5094934;28;20164;-71
2023/04/03 01:47:17;;;;;;;13.37;9.73;;;3.10;99.90;;;;;;5094888;28;20172;-71
2023/04/03 01:49:43;;;;;;;12.53;9.60;;;3.10;99.90;;;;;;5095172;28;20263;-71
2023/04/03 01:52:08;;;;;;;12.20;9.30;;;3.10;99.90;;;;;;5094967;28;20188;-70
2023/04/03 01:54:34;;;;;;;10.00;9.00;;;3.10;99.90;;;;;;5094988;28;20194;-72
2023/04/03 01:57:00;;;;;;;12.13;9.80;;;3.10;99.90;;;;;;5076860;28;20172;-72
2023/04/03 01:59:25;;;;;;;11.00;9.00;;;3.10;99.90;;;;;;5094550;28;20226;-72
2023/04/03 02:01:51;;;;;;;12.17;9.53;;;3.10;99.90;;;;;;5094687;28;20172;-71
2023/04/03 02:04:17;;;;;;;11.30;8.27;;;3.10;99.90;;;;;;5094666;28;20188;-71
2023/04/03 02:06:42;;;;;;;11.50;9.27;;;3.10;99.90;;;;;;5094853;28;20184;-71
2023/04/03 02:09:08;;;;;;;9.93;8.50;;;3.10;99.90;;;;;;5094700;28;20172;-71
2023/04/03 02:11:34;;;;;;;12.23;8.97;;;3.10;99.90;;;;;;5094736;28;20171;-71
2023/04/03 02:13:59;;;;;;;9.93;8.87;;;3.00;99.90;;;;;;5094234;28;20210;-71
2023/04/03 02:16:25;;;;;;;11.40;9.33;;;3.00;99.90;;;;;;5094335;28;20590;-72
2023/04/03 02:18:50;;;;;;;12.80;9.03;;;3.00;99.90;;;;;;5094209;28;20216;-72
2023/04/03 02:21:16;;;;;;;12.43;8.60;;;3.00;99.90;;;;;;5094477;28;20674;-72
2023/04/03 02:23:42;;;;;;;9.40;8.50;;;3.00;99.90;;;;;;5094641;28;20198;-71
2023/04/03 02:26:10;;;;;;;10.07;8.90;;;3.00;99.90;;;;;;5094284;28;20255;-71
2023/04/03 02:28:37;;;;;;;12.30;8.50;;;3.00;99.90;;;;;;5094054;28;20692;-71
2023/04/03 02:31:03;;;;;;;10.53;8.80;;;3.00;99.90;;;;;;5094186;28;20258;-71
2023/04/03 02:33:29;;;;;;;10.67;8.73;;;3.00;99.90;;;;;;5094307;28;20160;-71
2023/04/03 02:35:56;;;;;;;12.70;9.20;;;2.90;99.90;;;;;;5094263;28;20203;-72
2023/04/03 02:38:22;;;;;;;13.60;9.33;;;2.80;99.90;;;;;;5094416;28;20656;-71
2023/04/03 02:40:48;;;;;;;11.63;9.50;;;2.90;99.90;;;;;;5093294;28;20216;-71
2023/04/03 02:43:13;;;;;;;13.73;10.23;;;2.90;99.90;;;;;;5093772;28;20642;-71
2023/04/03 02:45:39;;;;;;;12.73;9.67;;;2.90;99.90;;;;;;5093865;28;20164;-71
2023/04/03 02:48:05;;;;;;;13.30;9.70;;;2.80;99.90;;;;;;5094115;28;20261;-72
2023/04/03 02:50:31;;;;;;;12.23;9.93;;;2.90;99.90;;;;;;5093655;28;20183;-72
2023/04/03 02:52:56;;;;;;;12.60;9.97;;;2.90;99.90;;;;;;5093889;28;20164;-71
2023/04/03 02:55:22;;;;;;;10.37;9.20;;;2.80;99.90;;;;;;5093860;28;20519;-71
2023/04/03 02:57:47;;;;;;;12.67;9.27;;;2.70;99.90;;;;;;5093608;28;20167;-71
2023/04/03 03:00:14;;;;;;;10.63;9.40;;;2.70;99.90;;;;;;5093650;28;20203;-71
2023/04/03 03:02:40;;;;;;;12.87;9.50;;;2.80;99.90;;;;;;5093764;28;20195;-72
2023/04/03 03:05:06;;;;;;;13.13;9.70;;;2.70;99.90;;;;;;5093440;28;20196;-72
2023/04/03 03:07:32;;;;;;;13.43;9.60;;;2.70;99.90;;;;;;5093568;28;20209;-72
2023/04/03 03:09:57;;;;;;;11.43;9.70;;;2.80;99.90;;;;;;5093826;28;20172;-71
2023/04/03 03:12:24;;;;;;;13.63;9.30;;;2.70;99.90;;;;;;5093252;28;20183;-71
2023/04/03 03:14:50;;;;;;;14.43;9.77;;;2.70;99.90;;;;;;5093166;28;20258;-71
2023/04/03 03:17:16;;;;;;;15.00;9.40;;;2.70;99.90;;;;;;5093682;28;20164;-72
2023/04/03 03:19:42;;;;;;;10.00;9.00;;;2.70;99.90;;;;;;5092672;28;20646;-70
2023/04/03 03:22:07;;;;;;;14.10;9.90;;;2.70;99.90;;;;;;5093263;28;20175;-71
2023/04/03 03:24:33;;;;;;;10.40;9.30;;;2.70;99.90;;;;;;5075114;28;20562;-72
2023/04/03 03:26:59;;;;;;;11.63;9.83;;;2.70;99.90;;;;;;5092815;28;20168;-71
2023/04/03 03:29:24;;;;;;;17.87;10.47;;;2.70;99.90;;;;;;5093045;28;20195;-72
2023/04/03 03:31:50;;;;;;;12.40;10.87;;;2.70;99.90;;;;;;5093017;28;20182;-70
2023/04/03 03:34:16;;;;;;;13.77;10.00;;;2.60;99.90;;;;;;5092933;28;20179;-70
2023/04/03 03:36:41;;;;;;;11.47;10.07;;;2.60;99.90;;;;;;5093204;28;20175;-72
2023/04/03 03:39:07;;;;;;;13.47;9.67;;;2.60;99.90;;;;;;5092959;28;20250;-72
2023/04/03 03:41:33;;;;;;;18.70;10.77;;;2.60;99.90;;;;;;5092396;28;20180;-72
2023/04/03 03:43:58;;;;;;;16.37;11.00;;;2.60;99.90;;;;;;5092963;28;20179;-72
2023/04/03 03:46:24;;;;;;;12.67;9.77;;;2.60;99.90;;;;;;5092726;28;20179;-72
2023/04/03 03:48:50;;;;;;;14.53;10.00;;;2.60;99.90;;;;;;5093083;28;20246;-71
2023/04/03 03:51:15;;;;;;;10.53;9.47;;;2.60;99.90;;;;;;5093645;28;20187;-71
2023/04/03 03:53:41;;;;;;;11.07;9.80;;;2.60;99.90;;;;;;5097026;28;20176;-71
2023/04/03 03:56:07;;;;;;;13.03;11.13;;;2.60;99.90;;;;;;5096559;28;20160;-72
2023/04/03 03:58:33;;;;;;;12.50;9.90;;;2.50;99.90;;;;;;5096756;28;20176;-71
2023/04/03 04:01:06;;;;;;;15.40;10.30;;;2.50;99.90;;;;;;5097071;28;20688;-71
2023/04/03 04:03:32;;;;;;;16.57;10.40;;;2.50;99.90;;;;;;5096673;28;20168;-71
2023/04/03 04:05:58;;;;;;;11.93;10.43;;;2.50;99.90;;;;;;5096643;28;20180;-71
2023/04/03 04:08:24;;;;;;;22.83;10.53;;;2.40;99.90;;;;;;5096707;28;20217;-71
2023/04/03 04:10:49;;;;;;;14.80;10.63;;;2.40;99.90;;;;;;5096060;28;20203;-72
2023/04/03 04:13:16;;;;;;;16.03;10.93;;;2.40;99.90;;;;;;5096228;28;20519;-73
2023/04/03 04:15:43;;;;;;;19.50;10.83;;;2.40;99.90;;;;;;5078330;28;20171;-73
2023/04/03 04:18:08;;;;;;;15.07;10.80;;;2.40;99.90;;;;;;5096152;28;20189;-73
2023/04/03 04:20:34;;;;;;;14.90;10.83;;;2.40;99.90;;;;;;5074674;28;20277;-72
2023/04/03 04:23:00;;;;;;;15.17;11.17;;;2.30;99.90;;;;;;5075524;28;20195;-72
2023/04/03 04:25:26;;;;;;;15.40;10.70;;;2.30;99.90;;;;;;5076117;28;20168;-72
2023/04/03 04:27:51;;;;;;;16.97;11.73;;;2.30;99.90;;;;;;5075644;28;20176;-73
2023/04/03 04:30:17;;;;;;;14.47;10.90;;;2.30;99.90;;;;;;5076120;28;20172;-71
2023/04/03 04:32:43;;;;;;;13.87;10.87;;;2.30;99.90;;;;;;5074318;28;20172;-72
2023/04/03 04:35:09;;;;;;;14.47;11.43;;;2.30;99.90;;;;;;5075631;28;20192;-72
2023/04/03 04:37:35;;;;;;;15.53;10.70;;;2.30;99.90;;;;;;5075729;28;20171;-71
2023/04/03 04:40:00;;;;;;;15.77;11.20;;;2.30;99.90;;;;;;5075397;28;20597;-72
2023/04/03 04:42:26;;;;;;;15.97;11.00;;;2.20;99.90;;;;;;5075490;28;20177;-73
2023/04/03 04:44:52;;;;;;;14.90;11.40;;;2.20;99.90;;;;;;5075097;28;20168;-71
2023/04/03 04:47:17;;;;;;;14.97;10.73;;;2.20;99.90;;;;;;5075470;28;20576;-72
2023/04/03 04:49:43;;;;;;;14.23;10.53;;;2.20;99.90;;;;;;5075396;28;20173;-72
2023/04/03 04:52:09;;;;;;;15.97;11.40;;;2.20;99.90;;;;;;5074791;28;20528;-73
2023/04/03 04:54:34;;;;;;;11.93;10.63;;;2.20;99.90;;;;;;5075490;28;20168;-72
2023/04/03 04:57:00;;;;;;;13.07;10.77;;;2.20;99.90;;;;;;5074699;28;20177;-73
2023/04/03 04:59:26;;;;;;;17.70;10.93;;;2.20;99.90;;;;;;5075589;28;20204;-72
2023/04/03 05:01:51;;;;;;;17.97;11.70;;;2.20;99.90;;;;;;5074903;28;20177;-73
2023/04/03 05:04:17;;;;;;;13.93;11.23;;;2.20;99.90;;;;;;5074656;28;20200;-73
2023/04/03 05:06:43;;;;;;;16.23;11.50;;;2.10;99.90;;;;;;5075004;28;20237;-73
2023/04/03 05:09:09;;;;;;;14.00;10.80;;;2.00;99.90;;;;;;5074887;28;20259;-73
2023/04/03 05:11:35;;;;;;;14.60;11.70;;;2.10;99.90;;;;;;5075019;28;20186;-72
2023/04/03 05:14:01;;;;;;;16.23;10.70;;;2.10;99.90;;;;;;5074671;28;20161;-72
2023/04/03 05:16:27;;;;;;;17.73;11.70;;;2.10;99.90;;;;;;5074524;28;20187;-73
2023/04/03 05:18:52;;;;;;;14.60;12.17;;;2.10;99.90;;;;;;5080320;28;20685;-72
2023/04/03 05:21:18;;;;;;;18.10;12.40;;;2.20;99.90;;;;;;5094428;28;20203;-72
2023/04/03 05:23:44;;;;;;;15.37;11.73;;;2.20;99.90;;;;;;5094777;28;20213;-72
2023/04/03 05:26:09;;;;;;;15.33;12.03;;;2.20;99.90;;;;;;5094626;28;20171;-73
2023/04/03 05:28:35;;;;;;;16.00;11.83;;;2.20;99.90;;;;;;5094788;28;20194;-73
2023/04/03 05:31:01;;;;;;;17.13;12.00;;;2.30;99.90;;;;;;5095127;28;20168;-73
2023/04/03 05:33:27;;;;;;;19.93;12.67;;;2.30;99.90;;;;;;5094682;28;20685;-72
2023/04/03 05:35:54;;;;;;;17.57;12.67;;;2.40;99.90;;;;;;5094445;28;20164;-73
2023/04/03 05:38:20;;;;;;;14.53;12.37;;;2.30;99.90;;;;;;5094331;28;20192;-73
2023/04/03 05:40:45;;;;;;;22.63;12.37;;;2.40;99.90;;;;;;5093800;28;20199;-72
2023/04/03 05:43:11;;;;;;;15.30;12.17;;;2.40;99.90;;;;;;5094135;28;20231;-72
2023/04/03 05:45:36;;;;;;;20.03;13.13;;;2.50;99.90;;;;;;5094168;28;20171;-73
2023/04/03 05:48:02;;;;;;;22.07;13.80;;;2.80;99.90;;;;;;5093988;28;20346;-73
2023/04/03 05:50:28;;;;;;;15.03;12.00;;;3.30;99.90;;;;;;5093224;28;20199;-72
2023/04/03 05:52:56;;;;;;;16.33;11.33;;;4.20;99.90;;;;;;5093736;28;20523;-72
2023/04/03 05:55:22;;;;;;;15.70;11.00;;;5.20;99.90;;;;;;5093701;28;20176;-73
2023/04/03 05:57:48;;;;;;;16.27;9.57;;;6.00;99.90;;;;;;5093119;28;20313;-74
2023/04/03 06:00:17;;;;;;;14.33;9.97;;;7.30;99.90;;;;;;5093749;28;20671;-75
2023/04/03 06:02:43;;;;;;;14.23;9.83;;;8.00;99.90;;;;;;5093726;28;20183;-75
2023/04/03 06:05:11;;;;;;;13.63;8.90;;;9.10;99.90;;;;;;5093034;28;20245;-75
2023/04/03 06:07:37;;;;;;;10.20;9.20;;;9.30;99.90;;;;;;5093695;28;20197;-76
2023/04/03 06:10:03;;;;;;;14.07;8.80;;;9.60;99.90;;;;;;5093622;28;20293;-74
2023/04/03 06:12:29;;;;;;;10.13;8.70;;;10.30;99.90;;;;;;5093887;28;20168;-77
2023/04/03 06:14:55;;;;;;;13.20;8.67;;;10.50;99.90;;;;;;5091723;28;20160;-76
2023/04/03 06:17:21;;;;;;;11.00;8.77;;;11.40;98.10;;;;;;5093515;28;20564;-76
2023/04/03 06:19:46;;;;;;;11.03;8.47;;;12.30;96.00;;;;;;5093389;28;20621;-76
2023/04/03 06:22:13;;;;;;;8.83;8.00;;;12.90;94.50;;;;;;5093018;28;20171;-77
2023/04/03 06:24:39;;;;;;;8.80;7.97;;;13.40;92.10;;;;;;5093289;28;20581;-77
2023/04/03 06:27:05;;;;;;;10.43;7.97;;;13.70;90.90;;;;;;5093379;28;20677;-77
2023/04/03 06:29:31;;;;;;;12.57;7.83;;;13.70;90.90;;;;;;5093788;28;20171;-75
2023/04/03 06:31:57;;;;;;;13.13;8.00;;;14.40;87.30;;;;;;5093486;28;20171;-77
2023/04/03 06:34:22;;;;;;;10.90;8.33;;;15.20;81.20;;;;;;5092320;28;20167;-77
2023/04/03 06:36:59;;;;;;;13.50;7.90;;;14.90;79.80;;;;;;5109881;27;1276791;-77
2023/04/03 06:39:25;;;;;;;11.50;7.70;;;15.10;79.00;;;;;;5130451;28;20170;-77
2023/04/03 06:41:51;;;;;;;8.57;7.77;;;15.20;75.90;;;;;;5130896;28;20174;-79
2023/04/03 06:44:17;;;;;;;12.80;7.68;;;15.10;73.50;;;;;;5130768;28;20178;-78
2023/04/03 06:46:43;;;;;;;13.63;8.77;;;14.90;76.50;;;;;;5130684;27;20170;-77
2023/04/03 06:49:10;;;;;;;12.93;7.97;;;15.30;74.40;;;;;;5130084;28;20197;-78
2023/04/03 06:51:36;;;;;;;12.63;8.05;;;14.70;76.20;;;;;;5113469;27;20191;-78
2023/04/03 06:54:03;;;;;;;11.17;8.50;;;13.90;78.60;;;;;;5110242;28;20631;-79
2023/04/03 06:56:29;;;;;;;10.57;9.00;;;14.30;77.90;;;;;;5110152;28;20218;-78
2023/04/03 06:58:57;;;;;;;14.87;8.50;;;13.50;83.70;;;;;;5109664;28;20520;-78
2023/04/03 07:01:25;;;;;;;11.27;8.33;;;13.40;86.40;;;;;;5110065;28;20163;-78
2023/04/03 07:03:51;;;;;;;12.57;8.30;;;13.30;88.50;;;;;;5109472;28;20203;-79
2023/04/03 07:06:18;;;;;;;13.77;8.80;;;13.30;90.20;;;;;;5109807;28;20695;-79
2023/04/03 07:08:44;;;;;;;8.80;8.00;;;13.50;88.40;;;;;;5109687;28;20179;-78
2023/04/03 07:11:11;;;;;;;9.13;8.17;;;13.90;86.30;;;;;;5109696;28;20306;-78
2023/04/03 07:13:37;;;;;;;10.32;7.68;;;14.00;84.30;;;;;;5109799;28;20267;-78
2023/04/03 07:16:05;;;;;;;11.45;7.88;;;14.20;80.90;;;;;;5109385;28;20279;-78
2023/04/03 07:18:31;;;;;;;8.63;7.53;;;14.90;80.00;;;;;;5108924;28;20175;-78
2023/04/03 07:20:57;;;;;;;8.10;7.40;;;14.40;82.00;;;;;;5109238;28;20218;-77
2023/04/03 07:23:23;;;;;;;8.57;7.67;;;13.60;82.60;;;;;;5109602;28;20530;-76
2023/04/03 07:25:50;;;;;;;7.97;7.27;;;12.50;88.40;;;;;;5109285;28;20171;-76
2023/04/03 07:28:17;;;;;;;8.07;7.37;;;12.50;89.40;;;;;;5109979;28;20216;-76
2023/04/03 07:30:48;;;;;;;8.73;7.30;;;12.20;90.10;;;;;;5109663;28;20183;-76
2023/04/03 07:33:15;;;;;;;8.50;7.53;;;12.00;91.60;;;;;;5108838;28;20259;-75
2023/04/03 07:35:42;;;;;;;9.43;7.43;;;12.00;92.60;;;;;;5108999;28;20234;-77
2023/04/03 07:38:08;;;;;;;8.57;7.43;;;12.30;91.50;;;;;;5109153;28;20175;-77
2023/04/03 07:40:34;;;;;;;8.37;7.30;;;12.10;92.60;;;;;;5106768;28;20254;-77
2023/04/03 07:43:00;;;;;;;7.47;6.77;;;13.50;90.20;;;;;;5104640;28;20194;-78
2023/04/03 07:45:26;;;;;;;10.90;7.03;;;13.70;85.20;;;;;;5105113;28;20184;-77
2023/04/03 07:47:52;;;;;;;10.50;7.47;;;13.20;85.80;;;;;;5097326;28;20320;-80
2023/04/03 07:50:18;;;;;;;9.43;7.40;;;13.10;88.20;;;;;;5095330;28;20643;-78
2023/04/03 07:52:45;;;;;;;7.10;6.50;;;13.30;87.70;;;;;;5095168;28;20321;-80
2023/04/03 07:55:11;;;;;;;14.73;6.73;;;12.90;87.30;;;;;;5095557;28;20196;-79
2023/04/03 07:57:37;;;;;;;7.70;6.90;;;12.40;89.50;;;;;;5095433;28;20175;-78
2023/04/03 08:00:04;;;;;;;10.80;7.10;;;12.00;91.20;;;;;;5095589;28;20673;-78
2023/04/03 08:02:31;;;;;;;10.17;7.00;;;12.80;89.10;;;;;;5095206;28;20267;-79
2023/04/03 08:04:58;;;;;;;7.60;6.87;;;13.50;89.80;;;;;;5095609;28;20203;-79
2023/04/03 08:07:24;;;;;;;9.18;7.10;;;14.20;83.90;;;;;;5095834;28;20269;-79
2023/04/03 08:09:50;;;;;;;7.53;6.60;;;14.90;78.80;;;;;;5095255;28;20198;-79
2023/04/03 08:12:16;;;;;;;7.30;6.33;;;13.80;81.60;;;;;;5095264;28;20267;-78
2023/04/03 08:14:42;;;;;;;8.37;7.57;;;13.20;85.80;;;;;;5095567;28;20203;-79
2023/04/03 08:17:11;;;;;;;7.43;6.73;;;13.80;83.40;;;;;;5093914;28;20184;-77
2023/04/03 08:19:40;;;;;;;7.93;7.17;;;12.80;88.10;;;;;;5095120;28;20168;-78
2023/04/03 08:22:06;;;;;;;7.27;6.40;;;13.20;86.40;;;;;;5095544;28;20176;-81
2023/04/03 08:24:33;;;;;;;9.17;6.90;;;13.00;83.80;;;;;;5086446;28;20294;-78
2023/04/03 08:26:58;;;;;;;7.87;6.63;;;12.10;90.00;;;;;;5076225;28;20180;-76
2023/04/03 08:29:25;;;;;;;7.10;6.40;;;12.60;90.60;;;;;;5094785;28;20167;-76
2023/04/03 08:31:51;;;;;;;9.37;6.57;;;12.00;89.70;;;;;;5094200;28;20199;-85
2023/04/03 08:34:17;;;;;;;8.83;6.77;;;10.90;93.50;;;;;;5076542;28;20412;-75
2023/04/03 08:36:43;;;;;;;8.20;6.87;;;10.90;94.60;;;;;;5085677;28;20281;-75
2023/04/03 08:39:10;;;;;;;7.67;6.87;;;12.20;92.50;;;;;;5093879;28;20651;-75
2023/04/03 08:41:39;;;;;;;7.07;6.20;;;13.00;90.10;;;;;;5094659;28;20206;-74
2023/04/03 08:44:26;;;;;;;7.70;6.90;;;13.00;88.30;;;;;;5094093;28;20172;-73
2023/04/03 08:47:29;;;;;;;9.63;5.97;;;13.70;89.30;;;;;;5093673;28;20666;-78
2023/04/03 08:49:59;;;;;;;9.13;6.50;;;13.60;85.40;;;;;;5093669;28;20285;-75
2023/04/03 08:52:39;;;;;;;6.30;5.60;;;12.40;89.50;;;;;;5094243;28;20187;-75
2023/04/03 08:55:16;;;;;;;7.07;6.07;;;12.30;90.50;;;;;;5093750;28;20300;-76
2023/04/03 08:57:44;;;;;;;9.90;6.47;;;12.50;89.60;;;;;;5087868;28;20195;-76
2023/04/03 09:00:13;;;;;;;6.57;5.97;;;13.30;87.40;;;;;;5091006;28;20178;-76
2023/04/03 09:02:47;;;;;;;6.20;5.60;;;13.10;85.90;;;;;;5084430;28;20177;-77
2023/04/03 09:05:38;;;;;;;6.10;5.60;;;12.40;87.90;;;;;;5092485;28;20176;-75
2023/04/03 09:08:19;;;;;;;6.97;5.50;;;12.80;87.20;;;;;;5093627;28;20174;-75
2023/04/03 09:10:44;;;;;;;6.70;5.90;;;13.00;86.20;;;;;;5093593;28;20164;-74
2023/04/03 09:13:47;;;;;;;5.73;5.20;;;13.80;84.10;;;;;;5093193;28;20190;-76
2023/04/03 09:16:39;;;;;;;9.63;5.15;;;13.80;80.30;;;;;;5092220;28;20568;-74
2023/04/03 09:19:20;;;;;;;5.45;4.95;;;14.10;75.90;;;;;;5093707;28;20214;-81
2023/04/03 09:21:45;;;;;;;5.93;5.10;;;14.00;76.10;;;;;;5092011;28;20176;-77
2023/04/03 09:24:14;;;;;;;5.63;4.82;;;14.30;76.50;;;;;;5093867;28;20530;-75
2023/04/03 09:27:03;;;;;;;4.67;4.10;;;14.30;75.20;;;;;;5093559;28;20168;-76
2023/04/03 09:29:29;;;;;;;5.25;4.50;;;13.40;77.20;;;;;;5093561;28;20197;-75
2023/04/03 09:32:22;;;;;;;4.23;3.83;;;14.30;72.50;;;;;;5093298;28;20164;-75
2023/04/03 09:34:49;;;;;;;4.90;4.27;;;13.20;73.70;;;;;;5092768;28;20205;-75
2023/04/03 09:37:37;;;;;;;5.00;4.03;;;13.20;80.40;;;;;;5092251;28;20727;-76
2023/04/03 09:40:04;;;;;;;4.10;3.60;;;14.10;72.80;;;;;;5092578;28;20167;-74
2023/04/03 09:42:33;;;;;;;4.13;3.13;;;13.50;73.70;;;;;;5093184;28;20180;-74
2023/04/03 09:45:05;;;;;;;4.80;3.50;;;13.60;73.50;;;;;;5093073;28;20251;-73
2023/04/03 09:47:33;;;;;;;5.97;3.10;;;12.70;75.20;;;;;;5091935;28;20172;-74
2023/04/03 09:50:23;;;;;;;3.90;3.03;;;12.40;74.50;;;;;;5092179;28;20526;-72
2023/04/03 09:52:55;;;;;;;3.43;2.63;;;11.80;79.70;;;;;;5091897;28;20168;-73
2023/04/03 09:55:29;;;;;;;4.53;3.27;;;11.70;80.50;;;;;;5092819;28;20237;-70
2023/04/03 09:58:01;;;;;;;5.23;3.50;;;11.60;80.60;;;;;;5092098;28;20236;-72
2023/04/03 10:00:33;;;;;;;4.13;3.33;;;12.10;80.40;;;;;;5092818;28;20236;-72
2023/04/03 10:02:59;;;;;;;3.40;3.10;;;12.00;79.70;;;;;;5092572;28;20168;-71
2023/04/03 10:05:31;;;;;;;4.70;3.70;;;11.90;81.60;;;;;;5092522;28;20603;-72
2023/04/03 10:08:18;;;;;;;4.43;3.10;;;12.40;77.60;;;;;;5092692;28;20267;-71
2023/04/03 10:10:49;;;;;;;4.13;3.20;;;12.90;76.60;;;;;;5092302;28;20178;-73
2023/04/03 10:13:19;;;;;;;3.60;2.67;;;13.70;72.20;;;;;;5092570;28;20191;-71
2023/04/03 10:15:58;;;;;;;2.37;2.17;;;13.60;67.20;;;;;;5091727;28;20226;-73
2023/04/03 10:18:59;;;;;;;4.03;2.70;;;13.70;67.40;;;;;;5092418;28;20656;-74
2023/04/03 10:21:43;;;;;;;2.13;2.00;;;12.80;71.90;;;;;;5092584;28;20587;-72
2023/04/03 10:24:48;;;;;;;4.23;2.63;;;12.40;72.10;;;;;;5092421;28;20171;-73
2023/04/03 10:27:25;;;;;;;4.70;2.70;;;11.90;72.50;;;;;;5071299;28;20187;-73
2023/04/03 10:30:03;;;;;;;5.83;2.70;;;12.70;73.20;;;;;;5072521;28;20171;-71
2023/04/03 10:32:48;;;;;;;3.50;2.50;;;12.30;68.80;;;;;;5089175;28;20163;-72
2023/04/03 10:35:30;;;;;;;2.57;2.37;;;11.60;75.90;;;;;;5090493;28;20219;-72
2023/04/03 10:38:32;;;;;;;3.97;2.50;;;12.00;71.60;;;;;;5091061;28;20159;-71
2023/04/03 10:41:03;;;;;;;4.90;3.10;;;11.90;67.40;;;;;;5091554;28;20316;-71
2023/04/03 10:43:42;;;;;;;4.00;2.67;;;12.00;71.30;;;;;;5092692;28;20657;-70
2023/04/03 10:46:16;;;;;;;4.88;4.00;;;12.40;70.00;;;;;;5091567;28;20398;-72
2023/04/03 10:49:32;;;;;;;2.07;1.87;;;12.60;69.10;;;;;;5091876;28;20243;-73
2023/04/03 10:52:28;;;;;;;2.33;2.07;;;11.70;62.60;;;;;;5064801;28;20186;-70
2023/04/03 10:55:07;;;;;;;2.90;2.60;;;11.00;67.30;;;;;;5089128;28;20519;-71
2023/04/03 10:57:33;;;;;;;3.27;2.13;;;11.10;72.90;;;;;;5090790;28;20176;-71
2023/04/03 11:00:03;;;;;;;5.10;2.17;;;11.30;67.40;;;;;;5091076;28;20536;-71
2023/04/03 11:03:00;;;;;;;2.33;1.70;;;11.70;63.40;;;;;;5091472;28;20586;-72
2023/04/03 11:05:25;;;;;;;2.80;1.97;;;11.30;59.40;;;;;;5070031;28;20422;-72
2023/04/03 11:07:55;;;;;;;4.17;2.60;;;11.30;56.90;;;;;;5090836;28;20195;-70
2023/04/03 11:10:39;;;;;;;1.70;1.60;;;11.50;57.90;;;;;;5091781;28;20355;-72
2023/04/03 11:13:15;;;;;;;6.13;2.00;;;11.20;55.90;;;;;;5091064;28;20172;-73
2023/04/03 11:15:42;;;;;;;6.20;2.10;;;11.20;54.60;;;;;;5092313;28;20203;-73
2023/04/03 11:18:17;;;;;;;3.60;2.67;;;11.40;55.20;;;;;;5091195;28;20164;-72
2023/04/03 11:20:50;;;;;;;2.93;2.10;;;11.60;59.30;;;;;;5091505;28;20199;-74
2023/04/03 11:23:24;;;;;;;3.08;2.63;;;11.90;58.60;;;;;;5093333;28;20889;-72
2023/04/03 11:25:53;;;;;;;4.17;2.50;;;11.80;62.40;;;;;;5093865;28;20175;-72
2023/04/03 11:28:18;;;;;;;4.27;3.07;;;11.30;66.30;;;;;;5095609;28;20176;-73
2023/04/03 11:30:53;;;;;;;3.33;2.50;;;11.20;75.30;;;;;;5095058;28;20240;-73
2023/04/03 11:33:31;;;;;;;2.73;2.10;;;11.30;69.10;;;;;;5094864;28;20258;-73
2023/04/03 11:36:13;;;;;;;4.07;2.53;;;11.70;67.60;;;;;;5094847;28;20317;-71
2023/04/03 11:38:44;;;;;;;4.60;2.57;;;11.40;70.20;;;;;;5093484;28;20177;-73
2023/04/03 11:41:12;;;;;;;3.20;1.90;;;11.50;70.40;;;;;;5095510;28;20163;-73
2023/04/03 11:43:56;;;;;;;2.27;1.80;;;11.40;65.90;;;;;;5094220;28;20206;-72
2023/04/03 11:46:22;;;;;;;4.38;2.88;;;11.00;64.20;;;;;;5083207;28;20409;-70
2023/04/03 11:48:49;;;;;;;4.80;2.77;;;11.20;65.70;;;;;;5094853;28;20492;-72
2023/04/03 11:51:20;;;;;;;4.67;1.97;;;11.70;61.60;;;;;;5090689;28;20195;-73
2023/04/03 11:53:46;;;;;;;6.23;2.23;;;12.20;60.50;;;;;;5094872;28;20156;-71
2023/04/03 11:56:27;;;;;;;2.40;2.00;;;12.00;62.80;;;;;;5094888;28;20203;-74
2023/04/03 11:59:18;;;;;;;6.13;1.97;;;12.10;62.40;;;;;;5094714;28;20194;-72
2023/04/03 12:01:46;;;;;;;5.87;2.57;;;11.80;60.60;;;;;;5089390;28;20214;-74
2023/04/03 12:04:15;;;;;;;5.90;3.07;;;12.00;66.40;;;;;;5094355;28;20180;-71
2023/04/03 12:06:40;;;;;;;2.93;2.33;;;12.00;63.60;;;;;;5093383;28;20644;-72
2023/04/03 12:09:21;;;;;;;6.13;2.70;;;11.70;67.40;;;;;;5094273;28;20253;-74
2023/04/03 12:11:47;;;;;;;7.17;2.57;;;11.70;68.90;;;;;;5094099;28;20179;-74
2023/04/03 12:14:16;;;;;;;3.47;2.60;;;11.50;70.40;;;;;;5087635;28;20488;-72
2023/04/03 12:16:43;;;;;;;2.10;2.00;;;11.50;69.00;;;;;;5076176;28;20246;-73
2023/04/03 12:19:15;;;;;;;2.77;2.10;;;11.10;57.80;;;;;;5072076;28;20208;-73
2023/04/03 12:21:51;;;;;;;2.30;1.57;;;10.50;55.00;;;;;;5073235;28;20207;-72
2023/04/03 12:24:17;;;;;;;2.03;1.57;;;10.30;53.60;;;;;;5082313;28;20248;-70
2023/04/03 12:27:02;;;;;;;4.20;2.20;;;10.30;52.80;;;;;;5092946;28;20204;-72
2023/04/03 12:29:32;;;;;;;2.10;1.60;;;10.20;50.70;;;;;;5094651;28;20176;-73
2023/04/03 12:32:07;;;;;;;2.53;2.30;;;10.10;52.60;;;;;;5094710;28;20171;-73
2023/04/03 12:35:05;;;;;;;4.07;1.83;;;10.20;51.20;;;;;;5072885;28;20240;-75
2023/04/03 12:38:08;;;;;;;2.60;1.70;;;10.30;49.10;;;;;;5031080;28;20629;-73
2023/04/03 12:40:42;;;;;;;2.53;2.00;;;10.20;50.40;;;;;;5034371;28;20189;-74
2023/04/03 12:43:39;;;;;;;3.97;2.10;;;10.50;51.00;;;;;;5033561;28;20169;-74
2023/04/03 12:46:15;;;;;;;1.80;1.70;;;10.40;52.40;;;;;;5034080;28;20166;-74
2023/04/03 12:48:58;;;;;;;3.30;2.13;;;10.20;52.40;;;;;;5033694;28;20227;-75
2023/04/03 12:51:31;;;;;;;3.37;2.83;;;10.40;54.30;;;;;;5033256;28;20209;-76
2023/04/03 12:54:19;;;;;;;2.30;1.93;;;10.60;52.80;;;;;;5052056;28;20204;-74
2023/04/03 12:56:45;;;;;;;3.90;2.00;;;10.10;51.00;;;;;;5053516;28;20220;-76